Flight Track Log - Related Links

Times and Time Zones

All times are in EDT time to prevent confusion due to time zone crossing. See the UAL4236 flight status page for this flight to view local times or setup timezone preferences in your user account.


Time Position Orientation Groundspeed Altitude Reporting Facility
EDT Latitude Longitude Course Direction KTS MPH feet Rate Location/Type
Fri 07:07:32 AM 32.3544 -90.1261 245° Southwest 176 203 3,600  Level Memphis Center
Fri 07:08:32 AM 32.3294 -90.1950 247° West 181 208 6,000 2,200 Climbing Memphis Center
Fri 07:09:00 AM 32.1828 -90.3678 239° Southwest  Level FlightAware Approximate
Fri 07:09:32 AM 32.2942 -90.2714 241° Southwest 230 265 8,000  Level Memphis Center
Fri 07:10:00 AM 32.1349 -90.4635 239° Southwest  Level FlightAware Approximate
Fri 07:10:32 AM 32.2544 -90.3572 241° Southwest 265 305 10,000  Level Memphis Center
Fri 07:11:00 AM 32.0918 -90.5621 245° Southwest  Level FlightAware Approximate
Fri 07:11:32 AM 32.2125 -90.4458 241° Southwest 295 339 11,700  Level Memphis Center
Fri 07:12:00 AM 32.0516 -90.6626 245° Southwest  Level FlightAware Approximate
Fri 07:12:32 AM 32.1686 -90.5464 243° Southwest 326 375 12,900  Level Memphis Center
Fri 07:13:32 AM 32.1206 -90.6492 241° Southwest 348 400 14,400 1,310 Climbing Memphis Center
Fri 07:13:59 AM 32.1078 -90.6800 244° Southwest 360 414 14,800 1,500 Climbing Houston Center
Fri 07:15:00 AM 32.0542 -90.7972 242° Southwest 362 417 16,600 1,686 Climbing Houston Center
Fri 07:16:00 AM 32.0067 -90.9008 242° Southwest 361 415 18,200 1,587 Climbing Houston Center
Fri 07:17:01 AM 31.9594 -91.0058 242° Southwest 362 417 19,800 1,377 Climbing Houston Center
Fri 07:18:02 AM 31.9106 -91.1117 241° Southwest 368 423 21,000 1,180 Climbing Houston Center
Fri 07:19:03 AM 31.8586 -91.2217 241° Southwest 382 440 22,200 1,131 Climbing Houston Center
Fri 07:20:04 AM 31.8067 -91.3333 241° Southwest 389 448 23,300 1,140 Climbing Houston Center
Fri 07:21:04 AM 31.7547 -91.4469 242° Southwest 394 453 24,500 1,190 Climbing Houston Center
Fri 07:22:05 AM 31.7019 -91.5614 242° Southwest 397 457 25,700 738 Climbing Houston Center
Fri 07:23:06 AM 31.6469 -91.6764 241° Southwest 403 464 26,000 148 Climbing Houston Center
Fri 07:24:07 AM 31.5903 -91.7994 242° Southwest 424 488 26,000  Level Houston Center
Fri 07:25:08 AM 31.5178 -91.9506 241° Southwest 441 507 26,000  Level Houston Center
Fri 07:26:09 AM 31.4639 -92.0644 241° Southwest 449 517 26,000  Level Houston Center
Fri 07:27:10 AM 31.4028 -92.1939 241° Southwest 454 522 26,000  Level Houston Center
Fri 07:28:10 AM 31.3406 -92.3239 241° Southwest 458 527 26,000  Level Houston Center
Fri 07:29:11 AM 31.2786 -92.4531 241° Southwest 457 526 26,000  Level Houston Center
Fri 07:30:12 AM 31.2103 -92.5817 238° Southwest 464 534 26,000  Level Houston Center
Fri 07:31:13 AM 31.1253 -92.7331 237° Southwest 465 535 26,000  Level Houston Center
Fri 07:32:14 AM 31.0553 -92.8581 237° Southwest 463 533 26,000  Level Houston Center
Fri 07:33:15 AM 30.9856 -92.9856 237° Southwest 466 536 26,000  Level Houston Center
Fri 07:34:16 AM 30.9142 -93.1122 237° Southwest 468 539 26,000  Level Houston Center
Fri 07:35:17 AM 30.8436 -93.2383 237° Southwest 468 539 26,000  Level Houston Center
Fri 07:36:18 AM 30.7722 -93.3639 237° Southwest 468 539 26,000  Level Houston Center
Fri 07:37:19 AM 30.7011 -93.4886 236° Southwest 468 539 26,000 -390 Level Houston Center
Fri 07:38:21 AM 30.6303 -93.6125 236° Southwest 467 537 25,200 -1,279 Descending Houston Center
Fri 07:39:21 AM 30.5611 -93.7364 237° Southwest 466 536 23,400 -2,182 Descending Houston Center
Fri 07:40:22 AM 30.4792 -93.8758 236° Southwest 448 516 20,800 -2,508 Descending Houston Center
Fri 07:41:23 AM 30.4161 -93.9864 237° Southwest 420 483 18,300 -2,364 Descending Houston Center
Fri 07:42:01 AM 30.3736 -94.0578 235° Southwest 404 465 16,900 -2,164 Descending Houston Center
Fri 07:42:24 AM 30.3531 -94.0956 238° Southwest 410 472 16,100 -1,953 Descending Houston Center
Fri 07:42:44 AM 30.3289 -94.1364 236° Southwest 409 471 15,500 -1,935 Descending Houston Center
Fri 07:43:26 AM 30.2906 -94.2036 237° Southwest 408 470 14,100 -2,066 Descending Houston Center
Fri 07:43:45 AM 30.2700 -94.2389 236° Southwest 399 459 13,400 -1,967 Descending Houston Center
Fri 07:44:27 AM 30.2317 -94.3047 236° Southwest 384 442 12,100 -1,455 Descending Houston Center
Fri 07:44:51 AM 30.2078 -94.3536 241° Southwest 369 425 11,800 -984 Descending Houston Center
Fri 07:45:28 AM 30.1897 -94.4122 250° West 370 426 11,100 -1,082 Descending Houston Center
Fri 07:45:52 AM 30.1733 -94.4742 253° West 370 426 10,700 -984 Descending Houston Center
Fri 07:46:29 AM 30.1603 -94.5214 252° West 368 423 10,100 -590 Descending Houston Center
Fri 07:46:53 AM 30.1422 -94.5847 252° West 356 410 10,100 -197 Level Houston Center
Fri 07:47:30 AM 30.1325 -94.6269 255° West 346 398 9,900 -98 Descending Houston Center
Fri 07:47:54 AM 30.1158 -94.6822 251° West 299 344 10,000 -885 Climbing Houston Center
Fri 07:48:31 AM 30.1028 -94.7336 254° West 283 326 9,000 -1,700 Descending Houston Center
Fri 07:48:54 AM 30.0947 -94.7694 255° West 282 325 8,300 -1,770 Descending Houston Center
Fri 07:49:32 AM 30.0797 -94.8189 251° West 278 320 7,200 -1,574 Descending Houston Center
Fri 07:49:55 AM 30.0711 -94.8522 253° West 275 316 6,700 -1,574 Descending Houston Center
Fri 07:50:33 AM 30.0578 -94.9022 253° West 273 314 5,600 -1,672 Descending Houston Center
Fri 07:50:56 AM 30.0475 -94.9347 250° West 272 313 5,000 -1,574 Descending Houston Center
Fri 07:51:34 AM 30.0350 -94.9850 254° West 273 314 4,000 -1,475 Descending Houston Center
Fri 07:51:57 AM 30.0244 -95.0222 252° West 271 312 3,500 -871 Descending Houston Center
Fri 07:52:36 AM 30.0128 -95.0672 253° West 271 312 3,100 -492 Descending Houston Center
Fri 07:52:58 AM 30.0025 -95.1044 252° West 267 307 3,000 -295 Descending Houston Center
Fri 07:53:37 AM 29.9933 -95.1453 255° West 264 304 2,800 -300 Descending Houston Center
Fri 07:53:58 AM 29.9928 -95.1781 269° West 196 226 2,700 -689 Descending Houston Center
Fri 07:54:38 AM 29.9942 -95.2092 273° West 223 257 2,100 -985 Descending Houston Center
Fri 07:55:05 AM 29.9925 -95.2458 267° West 185 213 1,600 -1,111 Descending Houston Center

Login

Don't have an account? Register now (free) for customized features, flight alerts, and more!